createdAt,value
2019-02-28T00:00:37.198Z,1009.49
2019-02-28T00:01:36.342Z,1009.47
2019-02-28T00:02:36.414Z,1009.44
2019-02-28T00:03:36.406Z,1009.44
2019-02-28T00:04:36.435Z,1009.45
2019-02-28T00:05:37.980Z,1009.47
2019-02-28T00:06:36.500Z,1009.41
2019-02-28T00:07:36.533Z,1009.37
2019-02-28T00:08:36.563Z,1009.34
2019-02-28T00:09:36.597Z,1009.31
2019-02-28T00:10:36.628Z,1009.33
2019-02-28T00:11:39.423Z,1009.28
2019-02-28T00:12:36.693Z,1009.28
2019-02-28T00:13:36.727Z,1009.25
2019-02-28T00:14:36.760Z,1009.25
2019-02-28T00:15:36.794Z,1009.25
2019-02-28T00:16:36.821Z,1009.21
2019-02-28T00:17:36.855Z,1009.21
2019-02-28T00:18:36.888Z,1009.20
2019-02-28T00:19:36.921Z,1009.16
2019-02-28T00:20:36.952Z,1009.13
2019-02-28T00:21:37.350Z,1009.18
2019-02-28T00:22:37.016Z,1009.13
2019-02-28T00:23:37.052Z,1009.08
2019-02-28T00:24:37.080Z,1009.14
2019-02-28T00:25:38.026Z,1009.10
2019-02-28T00:26:37.154Z,1009.10
2019-02-28T00:27:37.181Z,1009.02
2019-02-28T00:28:37.209Z,1009.03
2019-02-28T00:29:37.254Z,1009.01
2019-02-28T00:30:40.591Z,1008.95
2019-02-28T00:31:37.307Z,1008.96
2019-02-28T00:32:37.341Z,1008.96
2019-02-28T00:33:37.372Z,1008.93
2019-02-28T00:34:39.348Z,1008.93
2019-02-28T00:35:37.446Z,1008.94
2019-02-28T00:36:37.468Z,1008.88
2019-02-28T00:37:37.500Z,1008.85
2019-02-28T00:38:37.534Z,1008.90
2019-02-28T00:39:37.566Z,1008.85
2019-02-28T00:40:38.527Z,1008.82
2019-02-28T00:41:43.125Z,1008.78
2019-02-28T00:42:37.661Z,1008.74
2019-02-28T00:43:37.693Z,1008.74
2019-02-28T00:44:37.726Z,1008.71
2019-02-28T00:45:37.759Z,1008.71
2019-02-28T00:46:37.790Z,1008.67
2019-02-28T00:47:37.822Z,1008.68
2019-02-28T00:48:37.853Z,1008.61
2019-02-28T00:49:37.886Z,1008.61
2019-02-28T00:50:37.918Z,1008.62
2019-02-28T00:51:37.951Z,1008.59
2019-02-28T00:52:37.982Z,1008.58
2019-02-28T00:53:38.180Z,1008.55
2019-02-28T00:54:43.199Z,1008.52
2019-02-28T00:55:38.081Z,1008.57
2019-02-28T00:56:38.120Z,1008.49
2019-02-28T00:57:38.144Z,1008.49
2019-02-28T00:58:38.177Z,1008.44
2019-02-28T00:59:38.209Z,1008.47
2019-02-28T01:00:38.259Z,1008.46
2019-02-28T01:01:38.272Z,1008.41
2019-02-28T01:02:38.306Z,1008.45
2019-02-28T01:03:38.337Z,1008.45
2019-02-28T01:04:38.366Z,1008.43
2019-02-28T01:05:38.399Z,1008.41
2019-02-28T01:06:41.766Z,1008.46
2019-02-28T01:07:38.463Z,1008.41
2019-02-28T01:08:38.498Z,1008.40
2019-02-28T01:09:38.527Z,1008.37
2019-02-28T01:10:39.254Z,1008.37
2019-02-28T01:11:38.601Z,1008.34
2019-02-28T01:12:38.627Z,1008.28
2019-02-28T01:13:38.654Z,1008.31
2019-02-28T01:14:38.696Z,1008.30
2019-02-28T01:15:44.480Z,1008.29
2019-02-28T01:16:38.752Z,1008.18
2019-02-28T01:17:38.793Z,1008.22
2019-02-28T01:18:38.824Z,1008.16
2019-02-28T01:19:41.345Z,1008.20
2019-02-28T01:20:38.881Z,1008.12
2019-02-28T01:21:38.910Z,1008.18
2019-02-28T01:22:38.949Z,1008.12
2019-02-28T01:23:38.977Z,1008.17
2019-02-28T01:24:39.007Z,1008.09
2019-02-28T01:25:40.150Z,1008.11
2019-02-28T01:26:39.071Z,1008.08
2019-02-28T01:27:39.103Z,1008.09
2019-02-28T01:28:39.134Z,1008.10
2019-02-28T01:29:39.166Z,1007.98
2019-02-28T01:30:40.626Z,1008.01
2019-02-28T01:31:39.232Z,1008.00
2019-02-28T01:32:39.262Z,1007.96
2019-02-28T01:33:39.294Z,1007.94
2019-02-28T01:34:39.326Z,1007.93
2019-02-28T01:35:40.904Z,1007.91
2019-02-28T01:36:39.388Z,1007.91
2019-02-28T01:37:39.421Z,1007.93
2019-02-28T01:38:39.455Z,1007.90
2019-02-28T01:39:39.486Z,1007.86
2019-02-28T01:40:39.518Z,1007.84
2019-02-28T01:41:42.300Z,1007.84
2019-02-28T01:42:39.581Z,1007.81
2019-02-28T01:43:39.613Z,1007.84
2019-02-28T01:44:39.661Z,1007.78
2019-02-28T01:45:43.416Z,1007.78
2019-02-28T01:46:39.708Z,1007.85
2019-02-28T01:47:39.742Z,1007.84
2019-02-28T01:48:39.771Z,1007.84
2019-02-28T01:49:39.805Z,1007.92
2019-02-28T01:50:39.835Z,1007.91
2019-02-28T01:51:39.867Z,1007.79
2019-02-28T01:52:44.337Z,1007.81
2019-02-28T01:53:39.931Z,1007.75
2019-02-28T01:54:39.964Z,1007.78
2019-02-28T01:55:39.996Z,1007.78
2019-02-28T01:56:40.042Z,1007.70
2019-02-28T01:57:43.748Z,1007.69
2019-02-28T01:58:40.090Z,1007.69
2019-02-28T01:59:40.123Z,1007.67
2019-02-28T02:00:40.154Z,1007.68
2019-02-28T02:01:40.186Z,1007.64
2019-02-28T02:02:40.219Z,1007.63
2019-02-28T02:03:40.931Z,1007.62
2019-02-28T02:04:40.292Z,1007.55
2019-02-28T02:05:40.313Z,1007.53
2019-02-28T02:06:40.345Z,1007.52
2019-02-28T02:07:40.379Z,1007.50
2019-02-28T02:08:40.411Z,1007.50
2019-02-28T02:09:42.634Z,1007.47
2019-02-28T02:10:40.472Z,1007.49
2019-02-28T02:11:40.504Z,1007.46
2019-02-28T02:12:40.536Z,1007.46
2019-02-28T02:13:40.568Z,1007.50
2019-02-28T02:14:44.662Z,1007.52
2019-02-28T02:15:40.633Z,1007.48
2019-02-28T02:16:40.668Z,1007.51
2019-02-28T02:17:40.695Z,1007.56
2019-02-28T02:20:23.410Z,1007.50
2019-02-28T02:21:21.587Z,1007.50
2019-02-28T02:23:23.646Z,1007.44
2019-02-28T02:24:24.336Z,1007.39
2019-02-28T02:26:25.762Z,1007.42
2019-02-28T02:27:25.792Z,1007.41
2019-02-28T02:29:27.874Z,1007.49
2019-02-28T02:30:27.878Z,1007.45
2019-02-28T02:32:37.238Z,1007.45
2019-02-28T02:33:29.920Z,1007.42
2019-02-28T02:35:21.921Z,1007.34
2019-02-28T02:36:21.947Z,1007.35
2019-02-28T02:38:24.017Z,1007.29
2019-02-28T02:39:24.045Z,1007.29
2019-02-28T02:41:26.101Z,1007.23
2019-02-28T02:42:26.130Z,1007.22
2019-02-28T02:44:31.742Z,1007.09
2019-02-28T02:45:28.311Z,1007.11
2019-02-28T02:47:32.359Z,1007.14
2019-02-28T02:48:30.379Z,1007.08
2019-02-28T02:50:35.817Z,1007.00
2019-02-28T02:51:32.423Z,1006.97
2019-02-28T02:53:41.529Z,1006.95
2019-02-28T02:54:34.584Z,1006.94
2019-02-28T02:56:40.719Z,1006.84
2019-02-28T02:57:36.628Z,1006.88
2019-02-28T02:59:39.480Z,1006.90
2019-02-28T03:00:38.772Z,1006.92
2019-02-28T03:02:40.866Z,1006.93
2019-02-28T03:03:44.132Z,1006.91
2019-02-28T03:05:35.793Z,1006.88
2019-02-28T03:06:32.919Z,1006.89
2019-02-28T03:08:37.322Z,1006.81
2019-02-28T03:09:35.969Z,1006.81
2019-02-28T03:11:38.042Z,1006.79
2019-02-28T03:12:38.067Z,1006.72
2019-02-28T03:14:40.128Z,1006.68
2019-02-28T03:15:40.108Z,1006.76
2019-02-28T03:17:46.676Z,1006.77
2019-02-28T03:18:42.174Z,1006.77
2019-02-28T03:20:44.246Z,1006.77
2019-02-28T03:21:51.270Z,1006.86
2019-02-28T03:23:46.267Z,1006.80
2019-02-28T03:24:50.692Z,1006.83
2019-02-28T03:26:48.406Z,1006.78
2019-02-28T03:27:55.107Z,1006.80
2019-02-28T03:29:50.532Z,1006.79
2019-02-28T03:30:50.562Z,1006.76
2019-02-28T03:32:52.674Z,1006.79
2019-02-28T03:33:52.703Z,1006.78
2019-02-28T03:35:54.744Z,1006.77
2019-02-28T03:36:57.064Z,1006.74
2019-02-28T03:38:56.780Z,1006.69
2019-02-28T03:40:02.522Z,1006.71
2019-02-28T03:41:58.953Z,1006.72
2019-02-28T03:43:05.286Z,1006.68
2019-02-28T03:44:56.610Z,1006.64
2019-02-28T03:45:50.948Z,1006.58
2019-02-28T03:47:58.449Z,1006.54
2019-02-28T03:48:53.046Z,1006.55
2019-02-28T03:50:55.563Z,1006.56
2019-02-28T03:51:55.139Z,1006.56
2019-02-28T03:53:57.175Z,1006.58
2019-02-28T03:54:57.205Z,1006.49
2019-02-28T03:56:59.255Z,1006.52
2019-02-28T03:58:03.929Z,1006.44
2019-02-28T04:00:01.302Z,1006.34
2019-02-28T04:01:08.500Z,1006.44
2019-02-28T04:03:03.389Z,1006.37
2019-02-28T04:04:10.841Z,1006.41
2019-02-28T04:06:05.514Z,1006.44
2019-02-28T04:07:05.509Z,1006.49
2019-02-28T04:09:08.940Z,1006.38
2019-02-28T04:10:07.664Z,1006.37
2019-02-28T04:12:09.784Z,1006.30
2019-02-28T04:13:09.788Z,1006.32
2019-02-28T04:15:05.823Z,1006.23
2019-02-28T04:16:08.354Z,1006.20
2019-02-28T04:18:07.611Z,1006.16
2019-02-28T04:19:03.834Z,1006.18
2019-02-28T04:21:10.415Z,1006.15
2019-02-28T04:22:05.880Z,1006.12
2019-02-28T04:24:12.680Z,1006.16
2019-02-28T04:25:08.206Z,1006.13
2019-02-28T04:27:10.303Z,1006.11
2019-02-28T04:28:17.095Z,1006.09
2019-02-28T04:30:12.391Z,1006.09
2019-02-28T04:31:18.417Z,1006.09
2019-02-28T04:33:14.488Z,1006.04
2019-02-28T04:34:14.541Z,1006.01
2019-02-28T04:36:16.652Z,1006.05
2019-02-28T04:37:16.671Z,1005.96
2019-02-28T04:39:18.720Z,1005.94
2019-02-28T04:40:18.751Z,1005.93
2019-02-28T04:42:20.990Z,1005.87
2019-02-28T04:43:21.019Z,1005.80
2019-02-28T04:45:12.982Z,1005.85
2019-02-28T04:46:13.009Z,1005.89
2019-02-28T04:48:15.041Z,1005.79
2019-02-28T04:49:15.051Z,1005.85
2019-02-28T04:51:17.125Z,1005.76
2019-02-28T04:52:17.149Z,1005.80
2019-02-28T04:54:19.574Z,1005.76
2019-02-28T04:55:19.257Z,1005.86
2019-02-28T04:57:23.282Z,1005.77
2019-02-28T04:58:25.303Z,1005.75
2019-02-28T05:00:27.333Z,1005.69
2019-02-28T05:01:27.362Z,1005.70
2019-02-28T05:03:31.387Z,1005.67
2019-02-28T05:04:33.184Z,1005.64
2019-02-28T05:06:35.478Z,1005.59
2019-02-28T05:07:35.466Z,1005.63
2019-02-28T05:09:39.498Z,1005.63
2019-02-28T05:10:39.522Z,1005.67
2019-02-28T05:12:43.548Z,1005.67
2019-02-28T05:13:48.402Z,1005.67
2019-02-28T05:15:38.494Z,1005.67
2019-02-28T05:16:36.554Z,1005.60
2019-02-28T05:18:40.579Z,1005.68
2019-02-28T05:19:40.605Z,1005.67
2019-02-28T05:21:44.630Z,1005.75
2019-02-28T05:22:44.656Z,1005.69
2019-02-28T05:24:48.684Z,1005.71
2019-02-28T05:25:49.145Z,1005.70
2019-02-28T05:27:52.764Z,1005.69
2019-02-28T05:28:52.774Z,1005.61
2019-02-28T05:30:56.796Z,1005.58
2019-02-28T05:31:58.091Z,1005.55
2019-02-28T05:34:00.867Z,1005.51
2019-02-28T05:35:00.878Z,1005.48
2019-02-28T05:37:04.903Z,1005.44
2019-02-28T05:38:04.929Z,1005.39
2019-02-28T05:40:08.960Z,1005.39
2019-02-28T05:41:08.983Z,1005.35
2019-02-28T05:43:13.008Z,1005.31
2019-02-28T05:44:13.037Z,1005.38
2019-02-28T05:46:17.084Z,1005.35
2019-02-28T05:47:17.090Z,1005.32
2019-02-28T05:49:21.116Z,1005.37
2019-02-28T05:50:21.139Z,1005.39
2019-02-28T05:52:25.188Z,1005.39
2019-02-28T05:53:25.190Z,1005.36
2019-02-28T05:55:18.142Z,1005.35
2019-02-28T05:56:18.165Z,1005.32
2019-02-28T05:58:22.191Z,1005.36
2019-02-28T05:59:26.225Z,1005.39
2019-02-28T06:01:26.246Z,1005.46
2019-02-28T06:02:26.275Z,1005.43
2019-02-28T06:04:30.299Z,1005.55
2019-02-28T06:05:30.324Z,1005.55
2019-02-28T06:07:34.352Z,1005.53
2019-02-28T06:08:35.558Z,1005.53
2019-02-28T06:10:38.420Z,1005.53
2019-02-28T06:11:38.430Z,1005.56
2019-02-28T06:13:42.457Z,1005.71
2019-02-28T06:14:42.512Z,1005.75
2019-02-28T06:16:47.490Z,1005.76
2019-02-28T06:17:46.536Z,1005.75
2019-02-28T06:19:50.564Z,1005.77
2019-02-28T06:20:51.407Z,1005.77
2019-02-28T06:22:54.617Z,1005.78
2019-02-28T06:23:54.641Z,1005.84
2019-02-28T06:25:59.369Z,1005.79
2019-02-28T06:26:58.697Z,1005.82
2019-02-28T06:29:05.076Z,1005.83
2019-02-28T06:30:02.751Z,1005.79
2019-02-28T06:32:06.804Z,1005.80
2019-02-28T06:33:06.804Z,1005.81
2019-02-28T06:34:59.972Z,1005.81
2019-02-28T06:35:59.780Z,1005.76
2019-02-28T06:38:06.691Z,1005.78
2019-02-28T06:39:03.831Z,1005.80
2019-02-28T06:41:08.671Z,1005.83
2019-02-28T06:42:07.889Z,1005.86
2019-02-28T06:44:11.911Z,1005.79
2019-02-28T06:45:11.940Z,1005.83
2019-02-28T06:47:15.985Z,1005.83
2019-02-28T06:48:16.096Z,1005.83
2019-02-28T06:50:09.134Z,1005.78
2019-02-28T06:51:09.161Z,1005.83
2019-02-28T06:53:13.185Z,1005.84
2019-02-28T06:54:13.213Z,1005.80
2019-02-28T06:56:22.205Z,1005.76
2019-02-28T06:57:17.263Z,1005.70
2019-02-28T06:59:21.288Z,1005.69
2019-02-28T07:00:21.317Z,1005.70
2019-02-28T07:02:25.355Z,1005.69
2019-02-28T07:03:25.369Z,1005.67
2019-02-28T07:05:18.316Z,1005.58
2019-02-28T07:06:18.343Z,1005.63
2019-02-28T07:08:24.938Z,1005.55
2019-02-28T07:09:22.391Z,1005.52
2019-02-28T07:11:26.436Z,1005.41
2019-02-28T07:12:29.694Z,1005.31
2019-02-28T07:14:30.470Z,1005.41
2019-02-28T07:15:30.510Z,1005.44
2019-02-28T07:17:34.553Z,1005.50
2019-02-28T07:18:34.550Z,1005.53
2019-02-28T07:20:38.577Z,1005.53
2019-02-28T07:21:42.846Z,1005.55
2019-02-28T07:23:42.626Z,1005.46
2019-02-28T07:24:42.653Z,1005.49
2019-02-28T07:26:48.236Z,1005.51
2019-02-28T07:27:46.714Z,1005.59
2019-02-28T07:29:50.774Z,1005.66
2019-02-28T07:30:51.158Z,1005.72
2019-02-28T07:32:54.818Z,1005.73
2019-02-28T07:33:54.846Z,1005.67
2019-02-28T07:36:09.449Z,1005.69
2019-02-28T07:36:58.897Z,1005.72
2019-02-28T07:39:04.514Z,1005.67
2019-02-28T07:40:02.974Z,1005.70
2019-02-28T07:42:06.982Z,1005.73
2019-02-28T07:43:12.062Z,1005.69
2019-02-28T07:44:59.978Z,1005.73
2019-02-28T07:45:59.990Z,1005.77
2019-02-28T07:48:04.013Z,1005.75
2019-02-28T07:49:04.041Z,1005.75
2019-02-28T07:51:08.070Z,1005.71
2019-02-28T07:52:08.098Z,1005.73
2019-02-28T07:54:12.704Z,1005.88
2019-02-28T07:55:12.151Z,1005.86
2019-02-28T07:57:17.320Z,1005.77
2019-02-28T07:58:16.208Z,1005.86
2019-02-28T08:00:20.259Z,1005.95
2019-02-28T08:01:20.267Z,1005.92
2019-02-28T08:03:24.317Z,1006.03
2019-02-28T08:04:24.325Z,1005.97
2019-02-28T08:06:28.355Z,1005.94
2019-02-28T08:07:28.381Z,1005.87
2019-02-28T08:09:32.437Z,1005.75
2019-02-28T08:10:32.474Z,1005.91
2019-02-28T08:12:36.478Z,1005.92
2019-02-28T08:13:37.866Z,1005.88
2019-02-28T08:15:29.484Z,1006.02
2019-02-28T08:16:30.638Z,1005.94
2019-02-28T08:18:33.513Z,1005.87
2019-02-28T08:19:33.538Z,1005.89
2019-02-28T08:21:43.939Z,1005.85
2019-02-28T08:22:37.592Z,1005.90
2019-02-28T08:24:41.616Z,1005.91
2019-02-28T08:25:42.816Z,1005.84
2019-02-28T08:27:45.707Z,1005.94
2019-02-28T08:28:45.712Z,1005.95
2019-02-28T08:30:54.980Z,1005.91
2019-02-28T08:31:49.772Z,1005.99
2019-02-28T08:33:53.798Z,1005.92
2019-02-28T08:34:55.505Z,1005.94
2019-02-28T08:36:57.875Z,1005.95
2019-02-28T08:37:57.883Z,1005.98
2019-02-28T08:40:01.907Z,1005.90
2019-02-28T08:41:01.939Z,1005.97
2019-02-28T08:43:05.978Z,1005.99
2019-02-28T08:44:06.006Z,1005.98
2019-02-28T08:46:12.111Z,1005.93
2019-02-28T08:47:10.077Z,1005.84
2019-02-28T08:49:14.125Z,1005.82
2019-02-28T08:50:19.058Z,1005.78
2019-02-28T08:52:18.225Z,1005.75
2019-02-28T08:53:19.627Z,1005.73
2019-02-28T08:55:11.184Z,1005.74
2019-02-28T08:56:14.047Z,1005.79
2019-02-28T08:58:15.260Z,1005.76
2019-02-28T08:59:18.402Z,1005.76
2019-02-28T09:01:19.362Z,1005.80
2019-02-28T09:02:19.374Z,1005.78
2019-02-28T09:04:23.413Z,1005.73
2019-02-28T09:05:26.202Z,1005.79
2019-02-28T09:07:16.613Z,1005.71
2019-02-28T09:08:16.618Z,1005.65
2019-02-28T09:10:20.648Z,1005.73
2019-02-28T09:11:21.103Z,1005.78
2019-02-28T09:13:25.114Z,1005.82
2019-02-28T09:14:24.768Z,1005.90
2019-02-28T09:16:28.800Z,1005.98
2019-02-28T09:17:28.829Z,1006.06
2019-02-28T09:19:36.057Z,1005.95
2019-02-28T09:20:32.899Z,1005.79
2019-02-28T09:22:36.937Z,1005.82
2019-02-28T09:23:37.543Z,1005.83
2019-02-28T09:25:29.935Z,1005.91
2019-02-28T09:26:31.237Z,1005.84
2019-02-28T09:28:33.987Z,1005.85
2019-02-28T09:29:34.018Z,1005.74
2019-02-28T09:31:39.054Z,1005.72
2019-02-28T09:32:38.090Z,1005.62
2019-02-28T09:34:42.167Z,1005.69
2019-02-28T09:35:45.036Z,1005.78
2019-02-28T09:37:46.241Z,1005.79
2019-02-28T09:38:46.266Z,1005.78
2019-02-28T09:40:50.334Z,1005.78
2019-02-28T09:41:50.349Z,1005.78
2019-02-28T09:43:56.880Z,1005.97
2019-02-28T09:44:54.420Z,1005.80
2019-02-28T09:47:05.640Z,1005.97
2019-02-28T09:48:02.018Z,1006.05
2019-02-28T09:50:02.568Z,1006.06
2019-02-28T09:51:02.598Z,1006.03
2019-02-28T09:53:06.642Z,1006.00
2019-02-28T09:54:06.687Z,1006.00
2019-02-28T09:56:10.769Z,1005.99
2019-02-28T09:57:19.862Z,1006.00
2019-02-28T09:59:14.815Z,1005.96
2019-02-28T10:00:14.848Z,1005.97
2019-02-28T10:02:26.018Z,1006.07
2019-02-28T10:03:19.543Z,1006.10
2019-02-28T10:05:11.943Z,1006.06
2019-02-28T10:06:13.427Z,1006.00
2019-02-28T10:08:15.914Z,1006.14
2019-02-28T10:09:17.683Z,1006.11
2019-02-28T10:11:21.715Z,1006.18
2019-02-28T10:12:20.020Z,1006.13
2019-02-28T10:14:25.663Z,1006.15
2019-02-28T10:15:24.089Z,1006.17
2019-02-28T10:17:29.037Z,1006.20
2019-02-28T10:18:28.157Z,1006.23
2019-02-28T10:20:32.249Z,1006.31
2019-02-28T10:21:33.291Z,1006.25
2019-02-28T10:23:36.331Z,1006.21
2019-02-28T10:24:36.305Z,1006.17
2019-02-28T10:26:40.353Z,1006.21
2019-02-28T10:27:40.385Z,1006.23
2019-02-28T10:29:44.435Z,1006.22
2019-02-28T10:30:47.171Z,1006.25
2019-02-28T10:32:48.531Z,1006.26
2019-02-28T10:33:49.542Z,1006.20
2019-02-28T10:35:52.592Z,1006.12
2019-02-28T10:36:52.626Z,1006.24
2019-02-28T10:38:56.672Z,1006.28
2019-02-28T10:39:56.708Z,1006.28
2019-02-28T10:42:01.598Z,1006.46
2019-02-28T10:43:00.790Z,1006.38
2019-02-28T10:44:53.759Z,1006.45
2019-02-28T10:45:53.799Z,1006.48
2019-02-28T10:48:02.930Z,1006.46
2019-02-28T10:48:57.885Z,1006.38
2019-02-28T10:51:12.842Z,1006.47
2019-02-28T10:52:01.974Z,1006.38
2019-02-28T10:54:06.036Z,1006.38
2019-02-28T10:55:06.076Z,1006.34
2019-02-28T10:57:10.157Z,1006.42
2019-02-28T10:58:18.257Z,1006.47
2019-02-28T11:00:14.260Z,1006.33
2019-02-28T11:01:14.292Z,1006.30
2019-02-28T11:02:19.020Z,1006.25
2019-02-28T11:03:21.539Z,1006.37
2019-02-28T11:05:07.997Z,1006.32
2019-02-28T11:06:07.418Z,1006.31
2019-02-28T11:08:12.882Z,1006.36
2019-02-28T11:09:11.521Z,1006.37
2019-02-28T11:11:15.601Z,1006.42
2019-02-28T11:12:19.593Z,1006.33
2019-02-28T11:14:19.711Z,1006.32
2019-02-28T11:15:19.749Z,1006.35
2019-02-28T11:17:23.827Z,1006.34
2019-02-28T11:18:23.881Z,1006.43
2019-02-28T11:20:27.921Z,1006.39
2019-02-28T11:21:29.736Z,1006.39
2019-02-28T11:23:32.033Z,1006.53
2019-02-28T11:24:32.066Z,1006.48
2019-02-28T11:26:36.137Z,1006.44
2019-02-28T11:27:36.177Z,1006.46
2019-02-28T11:29:40.239Z,1006.50
2019-02-28T11:30:44.246Z,1006.51
2019-02-28T11:32:44.352Z,1006.47
2019-02-28T11:33:44.392Z,1006.49
2019-02-28T11:35:37.370Z,1006.49
2019-02-28T11:36:37.413Z,1006.57
2019-02-28T11:38:41.471Z,1006.46
2019-02-28T11:39:41.513Z,1006.50
2019-02-28T11:41:45.573Z,1006.50
2019-02-28T11:42:45.616Z,1006.42
2019-02-28T11:44:49.703Z,1006.47
2019-02-28T11:45:49.724Z,1006.46
2019-02-28T11:47:53.775Z,1006.49
2019-02-28T11:48:54.937Z,1006.47
2019-02-28T11:50:57.911Z,1006.52
2019-02-28T11:51:57.914Z,1006.56
2019-02-28T11:54:01.973Z,1006.56
2019-02-28T11:55:02.014Z,1006.47
2019-02-28T11:57:06.883Z,1006.39
2019-02-28T11:58:06.117Z,1006.41
2019-02-28T12:00:10.173Z,1006.43
2019-02-28T12:01:11.305Z,1006.34
2019-02-28T12:03:14.274Z,1006.29
2019-02-28T12:04:14.315Z,1006.44
2019-02-28T12:06:18.373Z,1006.29
2019-02-28T12:07:18.413Z,1006.42
2019-02-28T12:09:22.473Z,1006.53
2019-02-28T12:10:22.512Z,1006.53
2019-02-28T12:12:26.591Z,1006.48
2019-02-28T12:13:26.612Z,1006.46
2019-02-28T12:15:19.588Z,1006.40
2019-02-28T12:16:20.281Z,1006.50
2019-02-28T12:18:23.693Z,1006.45
2019-02-28T12:19:23.748Z,1006.45
2019-02-28T12:21:27.791Z,1006.30
2019-02-28T12:22:27.865Z,1006.36
2019-02-28T12:24:32.351Z,1006.37
2019-02-28T12:25:31.932Z,1006.35
2019-02-28T12:27:36.027Z,1006.43
2019-02-28T12:28:38.270Z,1006.50
2019-02-28T12:29:36.080Z,1006.46
2019-02-28T12:30:36.125Z,1006.40
2019-02-28T12:31:36.569Z,1006.50
2019-02-28T12:32:36.216Z,1006.47
2019-02-28T12:33:36.263Z,1006.53
2019-02-28T12:34:36.308Z,1006.56
2019-02-28T12:35:40.268Z,1006.60
2019-02-28T12:36:36.399Z,1006.55
2019-02-28T12:37:36.446Z,1006.59
2019-02-28T12:38:36.491Z,1006.54
2019-02-28T12:39:37.057Z,1006.57
2019-02-28T12:40:36.586Z,1006.55
2019-02-28T12:41:36.630Z,1006.42
2019-02-28T12:42:36.677Z,1006.62
2019-02-28T12:43:36.725Z,1006.61
2019-02-28T12:44:36.769Z,1006.59
2019-02-28T12:45:36.813Z,1006.52
2019-02-28T12:46:36.862Z,1006.57
2019-02-28T12:47:38.617Z,1006.62
2019-02-28T12:48:36.966Z,1006.60
2019-02-28T12:49:37.001Z,1006.64
2019-02-28T12:50:37.045Z,1006.61
2019-02-28T12:51:39.669Z,1006.62
2019-02-28T12:52:37.139Z,1006.55
2019-02-28T12:53:37.189Z,1006.52
2019-02-28T12:54:37.238Z,1006.59
2019-02-28T12:55:39.022Z,1006.62
2019-02-28T12:56:37.325Z,1006.54
2019-02-28T12:57:37.380Z,1006.43
2019-02-28T12:58:39.164Z,1006.50
2019-02-28T12:59:37.464Z,1006.63
2019-02-28T13:00:37.522Z,1006.61
2019-02-28T13:01:37.557Z,1006.52
2019-02-28T13:02:39.749Z,1006.57
2019-02-28T13:03:37.649Z,1006.49
2019-02-28T13:04:37.695Z,1006.49
2019-02-28T13:05:37.741Z,1006.63
2019-02-28T13:06:37.789Z,1006.63
2019-02-28T13:07:37.835Z,1006.49
2019-02-28T13:08:38.678Z,1006.47
2019-02-28T13:09:37.927Z,1006.46
2019-02-28T13:10:37.973Z,1006.57
2019-02-28T13:11:38.029Z,1006.45
2019-02-28T13:12:38.062Z,1006.53
2019-02-28T13:13:38.109Z,1006.48
2019-02-28T13:14:40.806Z,1006.48
2019-02-28T13:15:38.204Z,1006.41
2019-02-28T13:16:38.251Z,1006.39
2019-02-28T13:17:38.291Z,1006.37
2019-02-28T13:18:39.648Z,1006.41
2019-02-28T13:19:38.386Z,1006.33
2019-02-28T13:20:38.427Z,1006.24
2019-02-28T13:21:38.475Z,1006.31
2019-02-28T13:22:38.550Z,1006.25
2019-02-28T13:23:38.562Z,1006.18
2019-02-28T13:24:38.611Z,1006.21
2019-02-28T13:25:38.651Z,1006.23
2019-02-28T13:26:38.696Z,1006.26
2019-02-28T13:27:41.460Z,1006.19
2019-02-28T13:28:38.799Z,1006.20
2019-02-28T13:29:38.833Z,1006.22
2019-02-28T13:30:40.135Z,1006.17
2019-02-28T13:31:38.921Z,1006.21
2019-02-28T13:32:39.339Z,1006.22
2019-02-28T13:33:39.010Z,1006.22
2019-02-28T13:34:39.056Z,1006.19
2019-02-28T13:35:45.216Z,1006.19
2019-02-28T13:36:39.142Z,1006.17
2019-02-28T13:37:40.756Z,1006.21
2019-02-28T13:38:39.225Z,1006.18
2019-02-28T13:39:39.273Z,1006.17
2019-02-28T13:40:40.802Z,1006.13
2019-02-28T13:41:39.357Z,1006.09
2019-02-28T13:42:40.620Z,1006.03
2019-02-28T13:43:39.451Z,1006.06
2019-02-28T13:44:39.499Z,1006.06
2019-02-28T13:45:39.535Z,1006.02
2019-02-28T13:46:39.572Z,1006.03
2019-02-28T13:47:42.068Z,1006.08
2019-02-28T13:48:39.675Z,1006.05
2019-02-28T13:49:39.700Z,1006.06
2019-02-28T13:50:39.770Z,1006.10
2019-02-28T13:51:41.998Z,1006.05
2019-02-28T13:52:39.834Z,1006.05
2019-02-28T13:53:39.872Z,1006.04
2019-02-28T13:54:42.112Z,1006.04
2019-02-28T13:55:39.957Z,1006.16
2019-02-28T13:56:39.994Z,1006.15
2019-02-28T13:57:40.705Z,1006.13
2019-02-28T13:58:40.077Z,1006.10
2019-02-28T13:59:40.117Z,1006.04
2019-02-28T14:00:45.738Z,1006.08
2019-02-28T14:01:40.200Z,1006.07
2019-02-28T14:02:40.242Z,1006.08
2019-02-28T14:03:42.209Z,1006.09
2019-02-28T14:04:40.323Z,1006.06
2019-02-28T14:05:41.446Z,1006.13
2019-02-28T14:06:40.405Z,1006.12
2019-02-28T14:07:40.446Z,1006.14
2019-02-28T14:08:42.066Z,1006.13
2019-02-28T14:09:40.528Z,1006.12
2019-02-28T14:10:40.568Z,1006.18
2019-02-28T14:11:41.904Z,1006.15
2019-02-28T14:12:40.648Z,1006.16
2019-02-28T14:13:40.690Z,1006.20
2019-02-28T14:14:42.289Z,1006.26
2019-02-28T14:15:40.772Z,1006.33
2019-02-28T14:16:40.813Z,1006.30
2019-02-28T14:17:40.845Z,1006.30
2019-02-28T14:18:42.598Z,1006.29
2019-02-28T14:19:40.925Z,1006.28
2019-02-28T14:20:40.965Z,1006.29
2019-02-28T14:21:41.005Z,1006.38
2019-02-28T14:22:42.694Z,1006.29
2019-02-28T14:23:41.087Z,1006.25
2019-02-28T14:24:41.123Z,1006.31
2019-02-28T14:25:41.365Z,1006.34
2019-02-28T14:26:43.014Z,1006.33
2019-02-28T14:27:41.241Z,1006.28
2019-02-28T14:28:41.280Z,1006.34
2019-02-28T14:29:43.017Z,1006.31
2019-02-28T14:30:41.357Z,1006.31
2019-02-28T14:31:41.398Z,1006.24
2019-02-28T14:32:42.365Z,1006.37
2019-02-28T14:33:41.474Z,1006.23
2019-02-28T14:34:41.513Z,1006.25
2019-02-28T14:35:41.555Z,1006.21
2019-02-28T14:36:41.890Z,1006.22
2019-02-28T14:37:41.633Z,1006.21
2019-02-28T14:38:41.674Z,1006.12
2019-02-28T14:39:42.648Z,1006.19
2019-02-28T14:40:41.747Z,1006.22
2019-02-28T14:41:41.786Z,1006.19
2019-02-28T14:42:43.581Z,1006.24
2019-02-28T14:43:41.864Z,1006.24
2019-02-28T14:44:41.899Z,1006.21
2019-02-28T14:45:42.915Z,1006.24
2019-02-28T14:46:41.976Z,1006.19
2019-02-28T14:47:42.015Z,1006.20
2019-02-28T14:48:42.053Z,1006.23
2019-02-28T14:49:43.900Z,1006.27
2019-02-28T14:50:42.127Z,1006.17
2019-02-28T14:51:42.168Z,1006.18
2019-02-28T14:52:42.202Z,1006.13
2019-02-28T14:53:42.252Z,1006.09
2019-02-28T14:54:42.280Z,1006.16
2019-02-28T14:55:42.316Z,1006.12
2019-02-28T14:56:43.181Z,1006.14
2019-02-28T14:57:42.389Z,1006.16
2019-02-28T14:58:42.429Z,1006.11
2019-02-28T14:59:42.464Z,1006.04
2019-02-28T15:00:43.444Z,1006.05
2019-02-28T15:01:42.539Z,1006.04
2019-02-28T15:02:42.574Z,1006.03
2019-02-28T15:03:42.615Z,1005.99
2019-02-28T15:04:45.662Z,1006.00
2019-02-28T15:05:42.688Z,1006.00
2019-02-28T15:06:42.723Z,1006.02
2019-02-28T15:07:42.760Z,1006.01
2019-02-28T15:08:42.795Z,1006.03
2019-02-28T15:09:42.832Z,1006.01
2019-02-28T15:10:42.870Z,1005.97
2019-02-28T15:11:43.599Z,1006.00
2019-02-28T15:12:42.942Z,1006.03
2019-02-28T15:13:42.978Z,1005.97
2019-02-28T15:14:43.264Z,1005.95
2019-02-28T15:15:43.050Z,1005.99
2019-02-28T15:16:43.087Z,1005.91
2019-02-28T15:17:43.123Z,1005.94
2019-02-28T15:18:44.409Z,1005.99
2019-02-28T15:19:43.196Z,1005.98
2019-02-28T15:20:43.231Z,1005.93
2019-02-28T15:21:43.298Z,1005.95
2019-02-28T15:22:43.305Z,1005.90
2019-02-28T15:23:43.340Z,1005.95
2019-02-28T15:24:43.929Z,1005.96
2019-02-28T15:25:43.417Z,1005.94
2019-02-28T15:26:43.451Z,1006.05
2019-02-28T15:27:43.483Z,1005.96
2019-02-28T15:28:45.501Z,1005.99
2019-02-28T15:29:43.556Z,1005.99
2019-02-28T15:30:43.591Z,1005.95
2019-02-28T15:31:44.277Z,1006.00
2019-02-28T15:32:43.662Z,1006.03
2019-02-28T15:33:43.698Z,1006.05
2019-02-28T15:34:43.734Z,1006.04